Time;durP1;ratioP1;P1;durP2;ratioP2;P2;SDS_P1;SDS_P2;PMS_P1;PMS_P2;Temp;Humidity;BMP_temperature;BMP_pressure;BME280_temperature;BME280_humidity;BME280_pressure;Samples;Min_cycle;Max_cycle;Signal;HPM_P1;HPM_P2
2022/11/25 00:02:25;;;;;;;11.40;3.30;;;7.70;99.90;;;;;;5064846;28;20298;-77
2022/11/25 00:04:51;;;;;;;10.48;3.53;;;7.70;99.90;;;;;;5063247;28;20044;-77
2022/11/25 00:07:16;;;;;;;7.75;2.00;;;7.20;99.90;;;;;;5051822;28;20072;-77
2022/11/25 00:09:42;;;;;;;12.20;2.83;;;7.70;99.90;;;;;;5043436;28;20201;-77
2022/11/25 00:12:08;;;;;;;14.50;3.40;;;7.80;99.90;;;;;;5051255;28;20039;-78
2022/11/25 00:14:33;;;;;;;10.10;3.08;;;8.50;99.90;;;;;;5062872;28;20083;-78
2022/11/25 00:17:16;;;;;;;11.32;3.00;;;7.60;99.90;;;;;;5062273;28;20024;-79
2022/11/25 00:19:42;;;;;;;10.23;2.53;;;7.80;99.90;;;;;;5059888;28;20055;-79
2022/11/25 00:22:07;;;;;;;10.90;2.75;;;7.60;99.90;;;;;;5062910;28;20024;-80
2022/11/25 00:24:35;;;;;;;12.60;2.97;;;7.70;99.90;;;;;;5063366;28;20292;-80
2022/11/25 00:27:03;;;;;;;13.15;3.28;;;7.90;99.90;;;;;;5043819;28;20033;-80
2022/11/25 00:29:29;;;;;;;13.20;3.10;;;8.30;99.90;;;;;;5065109;28;20028;-80
2022/11/25 00:31:55;;;;;;;8.55;2.70;;;7.90;99.90;;;;;;5077046;28;20118;-78
2022/11/25 00:34:21;;;;;;;8.85;3.00;;;8.00;99.90;;;;;;5046296;28;20218;-82
2022/11/25 00:36:46;;;;;;;12.77;3.47;;;7.90;99.90;;;;;;5052242;28;20106;-80
2022/11/25 00:45:36;;;;;;;15.40;2.97;;;7.90;99.90;;;;;;5061307;28;20040;-79
2022/11/25 00:48:14;;;;;;;6.45;2.00;;;7.80;99.90;;;;;;5062734;28;20045;-81
2022/11/25 00:50:41;;;;;;;10.38;2.83;;;7.70;99.90;;;;;;5044352;28;20203;-79
2022/11/25 00:53:07;;;;;;;10.20;2.97;;;7.90;99.90;;;;;;5059438;28;20384;-76
2022/11/25 00:56:11;;;;;;;8.82;2.97;;;7.90;99.90;;;;;;5044458;28;20099;-77
2022/11/25 00:58:18;;;;;;;9.00;3.17;;;8.10;99.90;;;;;;5084871;28;20062;-79
2022/11/25 01:00:44;;;;;;;17.05;3.47;;;8.10;99.90;;;;;;5043751;28;20036;-80
2022/11/25 01:03:10;;;;;;;11.02;2.63;;;8.20;99.90;;;;;;5043961;28;20029;-78
2022/11/25 01:05:36;;;;;;;9.25;2.72;;;8.20;99.90;;;;;;5041681;28;20036;-81
2022/11/25 01:08:24;;;;;;;9.05;2.50;;;8.10;99.90;;;;;;5064195;28;20262;-80
2022/11/25 01:11:00;;;;;;;9.73;3.42;;;9.40;99.90;;;;;;5053641;28;20052;-79
2022/11/25 01:13:26;;;;;;;10.15;2.75;;;7.90;99.90;;;;;;5078818;28;20032;-79
2022/11/25 01:16:36;;;;;;;9.77;3.08;;;8.00;99.90;;;;;;5077608;28;20343;-79
2022/11/25 01:19:03;;;;;;;16.02;3.83;;;6.30;99.90;;;;;;5076426;28;20048;-79
2022/11/25 01:21:31;;;;;;;12.43;3.35;;;7.70;99.90;;;;;;5063584;28;20036;-80
2022/11/25 01:24:02;;;;;;;9.88;2.90;;;7.80;99.90;;;;;;5056427;28;20332;-80
2022/11/25 01:26:29;;;;;;;13.43;3.30;;;8.00;99.90;;;;;;5050834;28;20045;-78
2022/11/25 01:28:58;;;;;;;16.90;4.18;;;7.70;99.90;;;;;;5093875;28;20029;-80
2022/11/25 01:34:49;;;;;;;14.98;2.90;;;7.90;99.90;;;;;;5062737;28;20273;-78
2022/11/25 01:37:14;;;;;;;11.98;3.83;;;7.70;99.90;;;;;;5068189;28;20056;-79
2022/11/25 01:39:40;;;;;;;15.82;4.57;;;9.60;99.90;;;;;;5064145;28;20211;-76
2022/11/25 01:42:06;;;;;;;8.38;2.20;;;7.80;99.90;;;;;;5081189;28;20040;-78
2022/11/25 01:44:34;;;;;;;14.27;3.83;;;7.60;99.90;;;;;;5053794;28;20032;-77
2022/11/25 01:47:19;;;;;;;10.70;3.28;;;8.70;99.90;;;;;;5072473;28;20072;-78
2022/11/25 01:49:59;;;;;;;20.30;4.88;;;8.70;99.90;;;;;;5074313;28;20287;-77
2022/11/25 01:52:47;;;;;;;23.30;5.30;;;7.80;99.90;;;;;;5064622;28;20311;-79
2022/11/25 01:55:25;;;;;;;10.88;3.40;;;7.80;99.90;;;;;;5053765;28;20223;-79
2022/11/25 01:58:17;;;;;;;10.00;3.03;;;10.00;99.90;;;;;;5084489;28;20059;-79
2022/11/25 02:00:50;;;;;;;16.40;3.58;;;7.70;99.90;;;;;;5071193;28;20100;-79
2022/11/25 02:03:26;;;;;;;7.82;3.05;;;7.80;99.90;;;;;;5083056;28;20028;-78
2022/11/25 02:06:15;;;;;;;10.25;3.53;;;7.90;99.90;;;;;;5072454;28;20028;-79
2022/11/25 02:08:44;;;;;;;14.20;3.33;;;8.00;99.90;;;;;;5054365;28;20091;-79
2022/11/25 02:11:10;;;;;;;12.07;3.72;;;7.90;99.90;;;;;;5070997;28;20055;-80
2022/11/25 02:13:37;;;;;;;10.02;2.92;;;8.00;99.90;;;;;;5096351;28;20035;-78
2022/11/25 02:16:03;;;;;;;7.93;3.00;;;7.80;99.90;;;;;;5078220;28;20033;-77
2022/11/25 02:18:30;;;;;;;11.52;3.55;;;7.80;99.90;;;;;;5071062;28;20360;-78
2022/11/25 02:20:56;;;;;;;6.55;2.70;;;7.90;99.90;;;;;;5062832;28;20032;-77
2022/11/25 02:23:36;;;;;;;10.05;3.35;;;7.90;99.90;;;;;;5093208;28;20295;-77
2022/11/25 02:26:05;;;;;;;13.23;4.40;;;8.00;99.90;;;;;;5088757;28;20051;-78
2022/11/25 02:28:31;;;;;;;12.95;3.30;;;7.80;99.90;;;;;;5059210;28;20108;-78
2022/11/25 02:30:57;;;;;;;16.05;4.47;;;7.80;99.90;;;;;;5053496;28;20041;-80
2022/11/25 02:33:27;;;;;;;7.85;2.75;;;8.00;99.90;;;;;;5046562;28;20060;-79
2022/11/25 02:36:11;;;;;;;12.07;3.33;;;7.90;99.90;;;;;;5058834;28;20028;-79
2022/11/25 02:38:44;;;;;;;12.35;4.40;;;8.00;99.90;;;;;;5056486;28;20040;-78
2022/11/25 02:41:15;;;;;;;12.60;3.72;;;8.00;99.90;;;;;;5060059;28;20064;-78
2022/11/25 02:43:41;;;;;;;11.35;3.13;;;7.80;99.90;;;;;;5047105;28;20138;-78
2022/11/25 02:46:27;;;;;;;14.93;3.83;;;8.00;99.90;;;;;;5055481;28;20195;-77
2022/11/25 02:49:30;;;;;;;16.92;4.35;;;8.00;99.90;;;;;;5027883;28;20036;-77
2022/11/25 02:51:58;;;;;;;11.02;3.65;;;8.30;99.90;;;;;;5073641;28;20087;-77
2022/11/25 02:54:24;;;;;;;17.40;4.30;;;7.90;99.90;;;;;;5096396;28;20033;-77
2022/11/25 02:56:50;;;;;;;13.43;3.83;;;9.00;99.90;;;;;;5072329;28;20147;-78
2022/11/25 02:59:15;;;;;;;14.85;5.28;;;8.00;99.90;;;;;;5063611;28;20071;-78
2022/11/25 03:01:41;;;;;;;11.50;3.42;;;8.40;99.90;;;;;;5044277;28;20051;-78
2022/11/25 03:04:10;;;;;;;19.73;5.80;;;7.90;99.90;;;;;;5044947;28;20511;-78
2022/11/25 03:06:35;;;;;;;16.05;4.28;;;7.80;99.90;;;;;;5043759;28;20032;-78
2022/11/25 03:09:02;;;;;;;13.98;4.40;;;7.90;99.90;;;;;;5061471;28;20044;-79
2022/11/25 03:14:12;;;;;;;12.77;4.85;;;8.30;99.90;;;;;;5066759;28;20303;-77
2022/11/25 03:16:37;;;;;;;6.63;2.42;;;8.10;99.90;;;;;;5085648;28;20071;-78
2022/11/25 03:19:04;;;;;;;11.13;3.20;;;8.40;99.90;;;;;;5062169;28;20475;-78
2022/11/25 03:21:30;;;;;;;11.93;3.38;;;7.90;99.90;;;;;;5051201;28;20028;-78
2022/11/25 03:23:55;;;;;;;15.20;4.63;;;8.40;99.90;;;;;;5081405;28;20035;-77
2022/11/25 03:26:21;;;;;;;12.35;3.20;;;8.30;99.90;;;;;;5061941;28;20032;-78
2022/11/25 03:28:47;;;;;;;8.88;3.20;;;8.30;99.90;;;;;;5066226;28;20036;-78
2022/11/25 03:31:12;;;;;;;14.45;3.92;;;8.00;99.90;;;;;;5068655;28;20043;-79
2022/11/25 03:34:14;;;;;;;21.35;6.28;;;8.00;99.90;;;;;;5084496;28;20682;-78
2022/11/25 03:36:39;;;;;;;15.20;4.82;;;8.30;99.90;;;;;;5059101;28;20044;-78
2022/11/25 03:39:05;;;;;;;11.95;3.92;;;7.90;99.90;;;;;;5047069;28;20056;-78
2022/11/25 03:41:31;;;;;;;12.40;5.03;;;8.50;99.90;;;;;;5054017;28;20040;-80
2022/11/25 03:43:56;;;;;;;16.75;5.30;;;8.00;99.90;;;;;;5041285;28;20104;-81
2022/11/25 03:46:22;;;;;;;22.73;6.18;;;8.60;99.90;;;;;;5063572;28;20343;-79
2022/11/25 03:48:48;;;;;;;15.82;4.40;;;8.20;99.90;;;;;;5078900;28;20043;-78
2022/11/25 03:51:13;;;;;;;21.55;5.40;;;8.60;99.90;;;;;;5048399;28;20031;-80
2022/11/25 03:53:39;;;;;;;15.40;5.50;;;8.40;99.90;;;;;;5075035;28;20307;-77
2022/11/25 03:56:05;;;;;;;15.88;4.97;;;9.70;99.90;;;;;;5094232;28;20056;-77
2022/11/25 03:58:31;;;;;;;14.38;5.70;;;8.70;99.90;;;;;;5080311;28;20053;-77
2022/11/25 04:01:03;;;;;;;17.38;5.57;;;10.10;99.90;;;;;;5047280;28;20248;-77
2022/11/25 04:03:29;;;;;;;14.02;5.07;;;8.50;99.90;;;;;;5060373;28;20032;-79
2022/11/25 04:05:55;;;;;;;12.45;5.35;;;8.30;99.90;;;;;;5078772;28;20044;-77
2022/11/25 04:08:21;;;;;;;18.55;5.50;;;8.80;99.90;;;;;;5071579;28;20039;-77
2022/11/25 04:10:50;;;;;;;12.68;5.07;;;8.20;99.90;;;;;;5060237;28;20032;-77
2022/11/25 04:13:19;;;;;;;10.68;3.13;;;8.70;99.90;;;;;;5076715;28;20188;-78
2022/11/25 04:15:46;;;;;;;17.15;5.90;;;8.80;99.90;;;;;;5059467;28;20112;-76
2022/11/25 04:18:17;;;;;;;11.95;5.00;;;9.60;99.90;;;;;;5079396;28;20024;-77
2022/11/25 04:20:43;;;;;;;18.83;5.47;;;11.00;99.90;;;;;;5056015;28;20021;-77
2022/11/25 04:23:13;;;;;;;19.67;6.20;;;8.70;99.90;;;;;;5068132;28;20028;-77
2022/11/25 04:25:39;;;;;;;12.35;5.03;;;8.60;99.90;;;;;;5079990;28;20175;-77
2022/11/25 04:28:05;;;;;;;14.02;4.90;;;8.90;99.90;;;;;;5042762;28;20104;-78
2022/11/25 04:30:31;;;;;;;11.02;4.82;;;8.40;99.90;;;;;;5070876;28;20036;-77
2022/11/25 04:32:57;;;;;;;16.98;5.63;;;8.60;99.90;;;;;;5075184;28;20032;-78
2022/11/25 04:35:23;;;;;;;15.88;5.97;;;8.80;99.90;;;;;;5060222;28;20035;-79
2022/11/25 04:37:49;;;;;;;16.73;5.05;;;8.20;99.90;;;;;;5093289;28;20060;-77
2022/11/25 04:40:14;;;;;;;20.92;6.55;;;8.40;99.90;;;;;;5084744;28;20287;-77
2022/11/25 04:42:40;;;;;;;11.93;3.97;;;8.20;99.90;;;;;;5047753;28;20045;-77
2022/11/25 04:45:10;;;;;;;22.88;6.85;;;8.30;99.90;;;;;;5078927;28;20036;-79
2022/11/25 04:47:36;;;;;;;23.60;7.25;;;8.30;99.90;;;;;;5077823;28;20043;-75
2022/11/25 04:50:04;;;;;;;21.33;6.22;;;8.60;99.90;;;;;;5072283;28;20041;-77
2022/11/25 04:52:29;;;;;;;13.93;5.05;;;8.80;99.90;;;;;;5073904;28;20056;-78
2022/11/25 04:54:55;;;;;;;24.38;6.72;;;8.90;99.90;;;;;;5054495;28;20055;-78
2022/11/25 04:57:21;;;;;;;12.75;5.53;;;8.90;99.90;;;;;;5062619;28;20083;-77
2022/11/25 04:59:46;;;;;;;19.10;6.80;;;8.90;99.90;;;;;;5042989;28;20147;-77
2022/11/25 05:02:14;;;;;;;14.63;6.18;;;8.50;99.90;;;;;;5026428;28;20339;-78
2022/11/25 05:04:41;;;;;;;20.48;6.22;;;8.60;99.90;;;;;;5060579;28;20028;-75
2022/11/25 05:07:07;;;;;;;18.08;5.93;;;9.00;99.90;;;;;;5042462;28;20239;-76
2022/11/25 05:09:33;;;;;;;18.52;7.35;;;8.40;99.90;;;;;;5050153;28;20083;-77
2022/11/25 05:11:59;;;;;;;14.52;6.45;;;8.90;99.90;;;;;;5035450;28;20087;-79
2022/11/25 05:14:25;;;;;;;18.02;7.07;;;8.50;99.90;;;;;;5043438;28;20024;-76
2022/11/25 05:16:51;;;;;;;14.98;7.10;;;8.60;99.90;;;;;;5042542;28;20041;-75
2022/11/25 05:19:17;;;;;;;24.80;8.43;;;8.40;99.90;;;;;;5059456;28;20048;-79
2022/11/25 05:21:43;;;;;;;14.43;6.72;;;8.60;99.90;;;;;;5055779;28;20378;-79
2022/11/25 05:24:09;;;;;;;21.70;7.57;;;8.60;99.90;;;;;;5095692;28;20044;-77
2022/11/25 05:26:34;;;;;;;19.60;6.80;;;9.00;99.90;;;;;;5099836;28;20034;-77
2022/11/25 05:29:08;;;;;;;18.23;7.70;;;8.60;99.90;;;;;;5080105;28;20025;-77
2022/11/25 05:31:34;;;;;;;19.02;7.85;;;11.00;99.90;;;;;;5045527;28;20098;-77
2022/11/25 05:34:17;;;;;;;22.00;6.80;;;8.60;99.90;;;;;;5070033;28;20035;-77
2022/11/25 05:36:56;;;;;;;25.45;8.10;;;8.50;99.90;;;;;;5069265;28;20048;-77
2022/11/25 05:39:22;;;;;;;12.88;6.05;;;7.70;99.90;;;;;;5071561;28;20241;-78
2022/11/25 05:41:51;;;;;;;16.42;8.15;;;9.20;99.90;;;;;;5047773;28;20043;-78
2022/11/25 05:44:16;;;;;;;16.60;7.55;;;9.10;99.90;;;;;;5082332;28;20028;-77
2022/11/25 05:46:45;;;;;;;19.98;8.77;;;9.20;99.90;;;;;;5071199;28;20031;-74
2022/11/25 05:49:12;;;;;;;18.83;7.88;;;8.80;99.90;;;;;;5069578;28;20323;-77
2022/11/25 05:51:37;;;;;;;16.55;7.93;;;9.20;99.90;;;;;;5057582;28;20090;-76
2022/11/25 05:54:03;;;;;;;21.95;8.95;;;8.60;99.90;;;;;;5066664;28;20314;-80
2022/11/25 05:56:29;;;;;;;20.13;8.70;;;9.20;99.90;;;;;;5076111;28;20059;-74
2022/11/25 05:59:02;;;;;;;14.85;6.57;;;8.90;99.90;;;;;;5063828;28;20056;-75
2022/11/25 06:01:28;;;;;;;20.83;8.77;;;9.20;99.90;;;;;;5081267;28;20029;-77
2022/11/25 06:03:54;;;;;;;15.32;7.70;;;10.30;99.90;;;;;;5068862;28;20035;-77
2022/11/25 06:06:20;;;;;;;24.30;9.02;;;9.20;99.90;;;;;;5099219;28;20044;-78
2022/11/25 06:08:46;;;;;;;19.27;9.18;;;8.90;99.90;;;;;;5062055;28;20223;-78
2022/11/25 06:11:14;;;;;;;16.20;7.50;;;8.80;99.90;;;;;;5037316;28;20051;-78
2022/11/25 06:13:41;;;;;;;20.60;9.43;;;8.60;99.90;;;;;;5054917;28;20087;-74
2022/11/25 06:16:13;;;;;;;17.40;8.95;;;9.20;99.90;;;;;;5082126;28;20040;-77
2022/11/25 06:18:38;;;;;;;22.02;9.13;;;9.10;99.90;;;;;;5064469;28;20310;-79
2022/11/25 06:21:05;;;;;;;19.13;9.30;;;9.20;99.90;;;;;;5079501;28;20093;-75
2022/11/25 06:23:35;;;;;;;21.13;9.88;;;9.00;99.90;;;;;;5065016;28;20036;-76
2022/11/25 06:26:11;;;;;;;16.35;8.43;;;9.20;99.90;;;;;;5048567;28;20024;-79
2022/11/25 06:28:37;;;;;;;27.60;10.15;;;8.70;99.90;;;;;;5082656;28;20036;-78
2022/11/25 06:31:15;;;;;;;17.75;9.75;;;8.60;99.90;;;;;;5041402;28;20059;-77
2022/11/25 06:33:41;;;;;;;18.55;8.55;;;9.20;99.90;;;;;;5078894;28;20141;-75
2022/11/25 06:36:15;;;;;;;15.20;7.68;;;9.20;99.90;;;;;;5062587;28;20036;-78
2022/11/25 06:38:47;;;;;;;23.83;10.88;;;8.80;99.90;;;;;;5096317;28;20021;-78
2022/11/25 06:41:13;;;;;;;17.65;8.40;;;9.20;99.90;;;;;;5051927;28;20033;-77
2022/11/25 06:43:41;;;;;;;19.25;10.05;;;8.80;99.90;;;;;;5065910;28;20107;-79
2022/11/25 06:46:10;;;;;;;17.92;9.48;;;8.70;99.90;;;;;;5048983;28;20060;-78
2022/11/25 06:48:36;;;;;;;22.65;10.38;;;9.20;99.90;;;;;;5065749;28;20083;-78
2022/11/25 06:51:08;;;;;;;19.75;9.60;;;9.90;99.90;;;;;;5065005;28;20036;-78
2022/11/25 06:53:34;;;;;;;18.35;9.32;;;9.10;99.90;;;;;;5064718;28;20025;-78
2022/11/25 06:56:10;;;;;;;16.00;9.80;;;8.50;99.90;;;;;;5066884;28;20028;-77
2022/11/25 06:58:38;;;;;;;19.75;9.63;;;8.90;99.90;;;;;;5067306;28;20338;-79
2022/11/25 07:01:19;;;;;;;21.40;9.68;;;8.90;99.90;;;;;;5064697;28;20052;-78
2022/11/25 07:03:46;;;;;;;16.52;8.10;;;9.00;99.90;;;;;;5080187;28;20211;-77
2022/11/25 07:06:14;;;;;;;14.77;6.75;;;9.00;99.90;;;;;;5061451;28;20075;-78
2022/11/25 07:08:41;;;;;;;26.08;10.02;;;11.00;99.90;;;;;;5061863;28;20051;-82
2022/11/25 07:11:15;;;;;;;20.25;8.13;;;9.60;99.90;;;;;;5063340;28;20036;-78
2022/11/25 07:14:13;;;;;;;15.25;6.53;;;9.10;99.90;;;;;;5064538;28;20029;-78
2022/11/25 07:16:40;;;;;;;20.88;8.82;;;9.20;99.90;;;;;;5088910;28;20035;-78
2022/11/25 07:19:06;;;;;;;19.05;7.93;;;9.50;99.90;;;;;;5081124;28;20028;-79
2022/11/25 07:21:33;;;;;;;18.80;7.43;;;9.20;99.90;;;;;;5080875;28;20028;-78
2022/11/25 07:24:01;;;;;;;13.70;6.97;;;9.00;99.90;;;;;;5080966;28;20315;-77
2022/11/25 07:26:34;;;;;;;23.20;8.68;;;8.90;99.90;;;;;;5065163;28;20033;-79
2022/11/25 07:29:03;;;;;;;12.23;5.07;;;8.90;99.90;;;;;;5104249;28;20028;-80
2022/11/25 07:31:31;;;;;;;14.05;5.65;;;8.90;99.90;;;;;;5083417;28;20028;-77
2022/11/25 07:34:00;;;;;;;15.13;6.65;;;9.00;99.90;;;;;;5058599;28;20318;-78
2022/11/25 07:36:33;;;;;;;14.23;5.97;;;9.30;99.90;;;;;;5081244;28;20306;-76
2022/11/25 07:39:01;;;;;;;16.33;6.55;;;8.90;99.90;;;;;;5052683;28;20083;-76
2022/11/25 07:41:28;;;;;;;16.48;6.38;;;8.70;99.90;;;;;;5075506;28;20020;-79
2022/11/25 07:44:07;;;;;;;16.63;6.28;;;8.70;99.90;;;;;;5070253;28;20051;-77
2022/11/25 07:47:08;;;;;;;15.13;6.68;;;9.10;99.90;;;;;;5074680;28;20440;-78
2022/11/25 07:49:57;;;;;;;;;;;;;;;;;;;;;
2022/11/25 07:52:57;;;;;;;13.48;5.78;;;8.10;99.90;;;;;;5071057;28;20035;-77
2022/11/25 07:56:08;;;;;;;12.90;5.60;;;9.10;99.90;;;;;;5081796;28;20371;-79
2022/11/25 08:10:01;;;;;;;9.70;4.20;;;8.50;99.90;;;;;;4918462;29;20137;-75
2022/11/25 08:12:33;;;;;;;8.65;4.93;;;9.10;99.90;;;;;;4984969;28;20077;-75
2022/11/25 08:15:02;;;;;;;12.68;5.25;;;9.60;99.90;;;;;;5029270;28;20063;-79
2022/11/25 08:17:31;;;;;;;16.73;5.47;;;11.00;99.90;;;;;;5056155;28;20025;-77
2022/11/25 08:19:59;;;;;;;11.80;4.82;;;9.10;99.90;;;;;;5073127;28;20135;-76
2022/11/25 08:22:41;;;;;;;13.60;5.78;;;9.60;99.90;;;;;;5054751;28;20107;-78
2022/11/25 08:25:10;;;;;;;11.38;4.43;;;9.50;99.90;;;;;;5076650;28;20040;-78
2022/11/25 08:28:14;;;;;;;8.20;4.75;;;10.10;99.90;;;;;;5087580;28;20036;-78
2022/11/25 08:31:22;;;;;;;9.45;4.38;;;9.80;99.90;;;;;;5057698;28;20126;-74
2022/11/25 08:33:52;;;;;;;13.73;4.82;;;12.10;99.90;;;;;;5073489;28;20028;-75
2022/11/25 08:36:43;;;;;;;;;;;;;;;;;;;;;
2022/11/25 08:39:41;;;;;;;7.50;3.45;;;10.80;99.90;;;;;;5076627;28;20355;-80
2022/11/25 08:43:24;;;;;;;;;;;;;;;;;;;;;
2022/11/25 08:54:05;;;;;;;;;;;;;;;;;;;;;
2022/11/25 08:56:36;;;;;;;8.65;4.05;;;9.50;99.90;;;;;;4942006;28;20073;-77
2022/11/25 08:59:35;;;;;;;9.85;3.92;;;8.50;99.90;;;;;;5070848;28;20106;-78
2022/11/25 09:02:32;;;;;;;;;;;;;;;;;;;;;
2022/11/25 09:05:15;;;;;;;13.30;4.50;;;10.60;99.90;;;;;;5082068;28;20060;-75
2022/11/25 09:12:35;;;;;;;;;;;;;;;;;;;;;
2022/11/25 09:15:11;;;;;;;10.27;3.70;;;8.40;99.90;;;;;;5075261;28;20319;-78
2022/11/25 09:17:37;;;;;;;8.23;3.72;;;10.20;99.90;;;;;;5054794;28;20189;-79
2022/11/25 09:20:23;;;;;;;8.57;3.67;;;11.30;99.90;;;;;;5062308;28;20117;-81
2022/11/25 09:25:59;;;;;;;7.10;3.35;;;10.80;99.90;;;;;;5079961;28;20036;-77
2022/11/25 09:28:25;;;;;;;6.55;3.88;;;10.70;99.90;;;;;;5081594;28;20059;-78
2022/11/25 09:30:51;;;;;;;8.48;3.35;;;11.40;99.90;;;;;;5082187;28;20107;-79
2022/11/25 09:33:41;;;;;;;9.35;3.03;;;10.70;99.90;;;;;;5036199;28;20104;-80
2022/11/25 09:36:13;;;;;;;8.52;2.83;;;10.60;99.90;;;;;;5048062;28;20037;-81
2022/11/25 09:38:40;;;;;;;8.70;3.22;;;11.00;99.90;;;;;;5082576;28;20094;-81
2022/11/25 09:47:46;;;;;;;12.68;3.40;;;11.40;99.90;;;;;;5082967;28;20107;-79
2022/11/25 09:50:49;;;;;;;10.05;3.53;;;11.70;99.90;;;;;;5063421;28;20037;-77
2022/11/25 09:53:39;;;;;;;6.20;3.38;;;11.10;99.90;;;;;;5058665;28;20330;-81
2022/11/25 09:56:31;;;;;;;9.60;3.45;;;11.80;99.90;;;;;;5060039;28;20037;-80
2022/11/25 09:59:05;;;;;;;6.78;2.95;;;11.60;99.90;;;;;;5051188;28;20268;-80
2022/11/25 10:01:47;;;;;;;8.70;3.55;;;11.50;99.90;;;;;;5071388;28;20567;-78
2022/11/25 10:04:58;;;;;;;;;;;;;;;;;;;;;
2022/11/25 10:07:56;;;;;;;7.00;3.03;;;11.60;99.90;;;;;;5068317;28;20029;-80
2022/11/25 10:18:16;;;;;;;8.15;2.88;;;12.00;99.90;;;;;;5065375;28;20055;-77
2022/11/25 10:24:23;;;;;;;6.05;2.90;;;12.00;99.90;;;;;;5062884;28;20366;-76
2022/11/25 10:27:04;;;;;;;9.13;4.00;;;13.80;99.90;;;;;;5049221;28;20032;-74
2022/11/25 10:33:39;;;;;;;6.05;2.30;;;11.20;99.90;;;;;;5071931;28;20040;-75
2022/11/25 10:36:25;;;;;;;6.75;2.70;;;12.10;99.90;;;;;;5043858;28;20107;-76
2022/11/25 10:39:09;;;;;;;9.23;3.03;;;12.40;99.90;;;;;;5058420;28;20029;-78
2022/11/25 10:42:05;;;;;;;8.25;3.22;;;12.20;99.90;;;;;;5060478;28;20192;-77
2022/11/25 10:44:33;;;;;;;5.65;2.60;;;12.10;99.90;;;;;;5063849;28;20458;-76
2022/11/25 10:47:32;;;;;;;6.90;2.80;;;12.30;99.90;;;;;;5080494;28;20032;-77
2022/11/25 10:50:16;;;;;;;7.05;3.10;;;12.40;99.90;;;;;;5056691;28;20137;-77
2022/11/25 10:53:01;;;;;;;10.65;4.20;;;12.00;99.90;;;;;;5049627;28;20283;-78
2022/11/25 10:55:32;;;;;;;8.10;4.40;;;12.10;99.90;;;;;;5068931;28;20040;-69
2022/11/25 10:58:18;;;;;;;8.63;2.95;;;12.10;99.90;;;;;;5063419;28;20041;-77
2022/11/25 11:00:43;;;;;;;5.60;2.72;;;12.10;99.90;;;;;;5069988;28;20087;-76
2022/11/25 11:03:25;;;;;;;9.13;2.80;;;11.60;99.90;;;;;;5053592;28;20037;-79
2022/11/25 11:05:52;;;;;;;5.65;2.50;;;11.30;99.90;;;;;;5041738;28;20051;-77
2022/11/25 11:08:22;;;;;;;7.40;3.13;;;11.20;99.90;;;;;;5080079;28;20227;-78
2022/11/25 11:11:12;;;;;;;10.90;3.83;;;11.00;99.90;;;;;;5055960;28;20447;-79
2022/11/25 11:13:38;;;;;;;7.88;2.92;;;10.70;99.90;;;;;;5063260;28;20035;-78
2022/11/25 11:16:36;;;;;;;7.60;2.63;;;10.70;99.90;;;;;;5055460;28;20064;-77
2022/11/25 11:19:03;;;;;;;9.63;2.65;;;10.50;99.90;;;;;;5054246;28;20021;-79
2022/11/25 11:21:48;;;;;;;6.93;2.40;;;10.50;99.90;;;;;;5058866;28;20024;-78
2022/11/25 11:24:34;;;;;;;8.20;3.17;;;10.40;99.90;;;;;;5079780;28;20036;-78
2022/11/25 11:27:11;;;;;;;6.90;2.72;;;10.40;99.90;;;;;;5105685;28;20261;-80
2022/11/25 11:29:46;;;;;;;7.32;2.60;;;10.60;99.90;;;;;;5053489;28;20064;-77
2022/11/25 11:32:24;;;;;;;5.90;2.72;;;10.70;99.90;;;;;;5066400;28;20029;-78
2022/11/25 11:35:27;;;;;;;9.55;2.80;;;10.70;99.90;;;;;;5054284;28;20027;-77
2022/11/25 11:38:00;;;;;;;7.97;4.25;;;10.80;99.90;;;;;;5055711;28;20028;-77
2022/11/25 11:40:39;;;;;;;9.13;2.67;;;11.00;99.90;;;;;;5077841;28;20040;-75
2022/11/25 11:43:19;;;;;;;9.73;3.25;;;10.80;99.90;;;;;;5077957;28;20227;-79
2022/11/25 11:45:47;;;;;;;10.23;2.90;;;10.90;99.90;;;;;;5074596;28;20032;-77
2022/11/25 11:48:37;;;;;;;7.25;2.88;;;11.00;99.90;;;;;;5048379;28;20025;-78
2022/11/25 11:51:32;;;;;;;8.07;3.63;;;11.00;99.90;;;;;;5071259;28;20048;-78
2022/11/25 11:54:39;;;;;;;9.10;2.50;;;11.00;99.90;;;;;;5066537;28;20185;-78
2022/11/25 11:58:08;;;;;;;7.40;2.72;;;13.00;99.90;;;;;;5083457;28;20380;-79
2022/11/25 12:04:36;;;;;;;;;;;;;;;;;;;;;
2022/11/25 12:07:35;;;;;;;10.77;3.33;;;10.70;99.90;;;;;;5059146;28;20343;-77
2022/11/25 12:11:16;;;;;;;;;;;;;;;;;;;;;
2022/11/25 12:14:30;;;;;;;9.18;2.00;;;9.30;99.90;;;;;;5068706;28;20044;-78
2022/11/25 12:17:29;;;;;;;;;;;;;;;;;;;;;
2022/11/25 12:20:29;;;;;;;;;;;;;;;;;;;;;
2022/11/25 12:23:54;;;;;;;;;;;;;;;;;;;;;
2022/11/25 12:27:02;;;;;;;;;;;;;;;;;;;;;
2022/11/25 12:30:25;;;;;;;7.38;2.25;;;11.20;99.90;;;;;;5072051;28;20055;-75
2022/11/25 12:34:47;;;;;;;;;;;;;;;;;;;;;
2022/11/25 12:37:56;;;;;;;10.10;2.60;;;11.10;99.90;;;;;;4939732;28;20035;-80
2022/11/25 12:45:29;;;;;;;8.05;2.10;;;8.70;99.90;;;;;;4879926;29;20353;-78
2022/11/25 12:48:12;;;;;;;9.18;3.03;;;12.40;99.90;;;;;;4823628;29;20333;-77
2022/11/25 12:51:15;;;;;;;8.07;2.20;;;11.10;99.90;;;;;;5021809;28;20276;-79
2022/11/25 12:54:02;;;;;;;14.93;2.78;;;11.50;99.90;;;;;;5068480;28;20033;-77
2022/11/25 13:01:25;;;;;;;11.68;2.88;;;10.50;99.90;;;;;;5046840;28;20406;-79
2022/11/25 13:04:40;;;;;;;;;;;;;;;;;;;;;
2022/11/25 13:08:04;;;;;;;13.43;2.38;;;11.10;99.90;;;;;;5041567;28;20049;-78
2022/11/25 13:11:15;;;;;;;9.13;1.70;;;11.20;99.90;;;;;;5033618;28;20111;-78
2022/11/25 13:14:02;;;;;;;11.38;2.13;;;11.20;99.90;;;;;;5049317;28;20064;-80
2022/11/25 13:21:05;;;;;;;7.45;1.83;;;9.10;99.90;;;;;;5012440;28;20069;-79
2022/11/25 13:24:27;;;;;;;;;;;;;;;;;;;;;
2022/11/25 13:27:08;;;;;;;;;;;11.30;99.90;;;;;;5016828;28;20025;-80
2022/11/25 13:30:13;;;;;;;11.85;1.85;;;11.00;99.90;;;;;;4998850;28;19924;-81
2022/11/25 13:33:44;;;;;;;8.40;1.85;;;9.80;99.90;;;;;;5033876;28;20029;-79
2022/11/25 13:40:29;;;;;;;11.27;2.80;;;13.60;99.90;;;;;;4949405;28;20259;-78
2022/11/25 13:43:28;;;;;;;12.30;2.30;;;11.00;99.90;;;;;;5011151;28;20049;-79
2022/11/25 13:46:24;;;;;;;11.50;2.78;;;11.10;99.90;;;;;;5021363;28;20033;-79
2022/11/25 13:49:58;;;;;;;;;;;11.10;99.90;;;;;;5021532;28;20232;-78
2022/11/25 13:52:46;;;;;;;13.30;2.50;;;9.80;99.90;;;;;;4982538;28;20008;-77
2022/11/25 13:56:22;;;;;;;;;;;;;;;;;;;;;
2022/11/25 13:59:14;;;;;;;9.68;2.70;;;10.90;99.90;;;;;;5009194;28;20052;-78
2022/11/25 14:01:53;;;;;;;8.07;1.67;;;11.60;99.90;;;;;;5031495;28;20041;-78
2022/11/25 14:04:44;;;;;;;15.65;2.40;;;10.90;99.90;;;;;;5008370;28;20499;-78
2022/11/25 14:08:26;;;;;;;10.18;2.28;;;10.80;99.90;;;;;;5032730;28;20342;-78
2022/11/25 14:11:05;;;;;;;11.23;2.22;;;10.60;99.90;;;;;;4995071;28;20038;-78
2022/11/25 14:14:00;;;;;;;13.35;2.20;;;10.50;99.90;;;;;;5047664;28;20138;-77
2022/11/25 14:16:41;;;;;;;11.43;2.10;;;10.50;99.90;;;;;;5022162;28;20542;-75
2022/11/25 14:19:28;;;;;;;13.93;2.50;;;10.40;99.90;;;;;;5041643;28;20017;-77
2022/11/25 14:22:29;;;;;;;11.32;2.60;;;10.40;99.90;;;;;;5029591;28;20083;-78
2022/11/25 14:25:36;;;;;;;;;;;;;;;;;;;;;
2022/11/25 14:28:20;;;;;;;10.25;3.05;;;10.40;99.90;;;;;;4995845;28;20228;-77
2022/11/25 14:30:50;;;;;;;7.93;2.08;;;10.60;99.90;;;;;;5042547;28;20041;-80
2022/11/25 14:33:24;;;;;;;11.18;2.70;;;9.50;99.90;;;;;;5032344;28;20052;-77
2022/11/25 14:36:18;;;;;;;11.63;2.72;;;10.40;99.90;;;;;;5043026;28;20032;-79
2022/11/25 14:39:16;;;;;;;13.63;3.00;;;10.30;99.90;;;;;;5042012;28;20039;-78
2022/11/25 14:42:27;;;;;;;9.85;2.05;;;10.40;99.90;;;;;;5042003;28;20033;-78
2022/11/25 14:46:08;;;;;;;11.70;2.63;;;10.50;99.90;;;;;;5027487;28;20258;-78
2022/11/25 14:48:34;;;;;;;11.90;2.13;;;12.50;99.90;;;;;;5038356;28;20036;-78
2022/11/25 14:51:32;;;;;;;12.43;2.50;;;10.70;99.90;;;;;;5014928;28;20037;-78
2022/11/25 14:58:21;;;;;;;15.40;2.88;;;8.90;99.90;;;;;;4904891;29;20036;-78
2022/11/25 15:05:31;;;;;;;11.85;3.30;;;9.90;99.90;;;;;;4920834;28;20052;-79
2022/11/25 15:08:37;;;;;;;10.63;3.40;;;10.00;99.90;;;;;;4982549;28;20227;-79
2022/11/25 15:11:00;;;;;;;12.20;2.80;;;10.20;99.90;;;;;;5048761;28;20231;-77
2022/11/25 15:14:36;;;;;;;8.13;2.03;;;9.80;99.90;;;;;;5038463;28;20029;-77
2022/11/25 15:17:56;;;;;;;11.50;2.50;;;9.50;99.90;;;;;;5040590;28;20037;-76
2022/11/25 15:20:24;;;;;;;14.60;2.25;;;8.70;99.90;;;;;;5039053;28;20053;-78
2022/11/25 15:24:13;;;;;;;11.32;3.10;;;9.50;99.90;;;;;;5043038;28;20036;-77
2022/11/25 15:30:53;;;;;;;11.65;3.85;;;8.70;99.90;;;;;;5022932;28;20048;-77
2022/11/25 15:33:59;;;;;;;14.73;3.63;;;7.40;99.90;;;;;;5042603;28;20037;-78
2022/11/25 15:36:46;;;;;;;;;;;9.40;99.90;;;;;;5035106;28;20157;-79
2022/11/25 15:39:33;;;;;;;6.47;2.75;;;9.80;99.90;;;;;;5028877;28;19921;-77
2022/11/25 15:42:14;;;;;;;7.95;2.70;;;9.60;99.90;;;;;;5035005;28;20044;-80
2022/11/25 15:44:47;;;;;;;11.63;3.08;;;9.10;99.90;;;;;;5051211;28;20021;-79
2022/11/25 16:00:45;;;;;;;;;;;;;;;;;;;;;